sensor_id;sensor_type;location;lat;lon;timestamp;P1;durP1;ratioP1;P2;durP2;ratioP2
79066;SDS011;68470;50.224;14.348;2023-07-13T00:00:24;7.55;;;4.78;;
79066;SDS011;68470;50.224;14.348;2023-07-13T00:05:38;8.65;;;4.32;;
79066;SDS011;68470;50.224;14.348;2023-07-13T00:08:05;7.45;;;4.05;;
79066;SDS011;68470;50.224;14.348;2023-07-13T00:10:30;11.32;;;4.20;;
79066;SDS011;68470;50.224;14.348;2023-07-13T00:12:57;8.90;;;4.25;;
79066;SDS011;68470;50.224;14.348;2023-07-13T00:15:24;6.07;;;4.00;;
79066;SDS011;68470;50.224;14.348;2023-07-13T00:22:47;6.10;;;4.07;;
79066;SDS011;68470;50.224;14.348;2023-07-13T00:25:14;6.78;;;4.10;;
79066;SDS011;68470;50.224;14.348;2023-07-13T00:27:41;8.30;;;4.45;;
79066;SDS011;68470;50.224;14.348;2023-07-13T00:30:07;9.85;;;5.55;;
79066;SDS011;68470;50.224;14.348;2023-07-13T00:32:34;5.93;;;4.05;;
79066;SDS011;68470;50.224;14.348;2023-07-13T00:35:00;7.57;;;4.30;;
79066;SDS011;68470;50.224;14.348;2023-07-13T00:37:27;9.30;;;3.95;;
79066;SDS011;68470;50.224;14.348;2023-07-13T00:39:52;8.00;;;5.28;;
79066;SDS011;68470;50.224;14.348;2023-07-13T00:42:19;8.68;;;4.13;;
79066;SDS011;68470;50.224;14.348;2023-07-13T00:45:04;6.97;;;4.22;;
79066;SDS011;68470;50.224;14.348;2023-07-13T00:47:32;6.53;;;3.78;;
79066;SDS011;68470;50.224;14.348;2023-07-13T00:49:58;5.72;;;3.63;;
79066;SDS011;68470;50.224;14.348;2023-07-13T00:52:25;6.88;;;3.95;;
79066;SDS011;68470;50.224;14.348;2023-07-13T00:54:53;7.30;;;4.05;;
79066;SDS011;68470;50.224;14.348;2023-07-13T00:57:20;7.55;;;4.00;;
79066;SDS011;68470;50.224;14.348;2023-07-13T00:59:47;11.43;;;5.10;;
79066;SDS011;68470;50.224;14.348;2023-07-13T01:02:17;7.45;;;4.30;;
79066;SDS011;68470;50.224;14.348;2023-07-13T01:04:43;6.38;;;4.18;;
79066;SDS011;68470;50.224;14.348;2023-07-13T01:07:09;9.10;;;4.32;;
79066;SDS011;68470;50.224;14.348;2023-07-13T01:09:36;9.82;;;4.70;;
79066;SDS011;68470;50.224;14.348;2023-07-13T01:12:03;6.50;;;3.60;;
79066;SDS011;68470;50.224;14.348;2023-07-13T01:14:29;6.75;;;4.40;;
79066;SDS011;68470;50.224;14.348;2023-07-13T01:16:55;7.75;;;4.03;;
79066;SDS011;68470;50.224;14.348;2023-07-13T01:19:25;7.55;;;4.22;;
79066;SDS011;68470;50.224;14.348;2023-07-13T01:22:02;6.35;;;4.30;;
79066;SDS011;68470;50.224;14.348;2023-07-13T01:24:28;7.38;;;4.25;;
79066;SDS011;68470;50.224;14.348;2023-07-13T01:26:55;6.53;;;3.95;;
79066;SDS011;68470;50.224;14.348;2023-07-13T01:29:21;6.03;;;4.10;;
79066;SDS011;68470;50.224;14.348;2023-07-13T01:31:46;8.57;;;4.07;;
79066;SDS011;68470;50.224;14.348;2023-07-13T01:34:12;6.68;;;4.22;;
79066;SDS011;68470;50.224;14.348;2023-07-13T01:36:38;5.88;;;3.88;;
79066;SDS011;68470;50.224;14.348;2023-07-13T01:39:04;8.25;;;4.00;;
79066;SDS011;68470;50.224;14.348;2023-07-13T01:41:30;5.20;;;3.58;;
79066;SDS011;68470;50.224;14.348;2023-07-13T01:43:55;5.25;;;4.00;;
79066;SDS011;68470;50.224;14.348;2023-07-13T01:46:21;5.80;;;3.83;;
79066;SDS011;68470;50.224;14.348;2023-07-13T01:48:47;8.38;;;4.93;;
79066;SDS011;68470;50.224;14.348;2023-07-13T01:51:13;6.55;;;4.20;;
79066;SDS011;68470;50.224;14.348;2023-07-13T01:53:39;7.03;;;4.47;;
79066;SDS011;68470;50.224;14.348;2023-07-13T01:56:05;6.28;;;4.38;;
79066;SDS011;68470;50.224;14.348;2023-07-13T01:58:30;6.32;;;4.80;;
79066;SDS011;68470;50.224;14.348;2023-07-13T02:00:56;6.32;;;4.20;;
79066;SDS011;68470;50.224;14.348;2023-07-13T02:03:22;6.65;;;4.63;;
79066;SDS011;68470;50.224;14.348;2023-07-13T02:05:48;8.40;;;5.30;;
79066;SDS011;68470;50.224;14.348;2023-07-13T02:08:13;7.50;;;4.20;;
79066;SDS011;68470;50.224;14.348;2023-07-13T02:10:40;9.05;;;5.15;;
79066;SDS011;68470;50.224;14.348;2023-07-13T02:13:06;8.23;;;4.50;;
79066;SDS011;68470;50.224;14.348;2023-07-13T02:15:32;7.50;;;4.55;;
79066;SDS011;68470;50.224;14.348;2023-07-13T02:17:58;8.10;;;4.43;;
79066;SDS011;68470;50.224;14.348;2023-07-13T02:20:24;8.48;;;4.50;;
79066;SDS011;68470;50.224;14.348;2023-07-13T02:22:51;8.07;;;4.60;;
79066;SDS011;68470;50.224;14.348;2023-07-13T02:25:17;6.57;;;4.30;;
79066;SDS011;68470;50.224;14.348;2023-07-13T02:27:43;10.85;;;5.38;;
79066;SDS011;68470;50.224;14.348;2023-07-13T02:30:10;8.18;;;4.95;;
79066;SDS011;68470;50.224;14.348;2023-07-13T02:32:36;7.82;;;4.85;;
79066;SDS011;68470;50.224;14.348;2023-07-13T02:35:02;6.25;;;3.50;;
79066;SDS011;68470;50.224;14.348;2023-07-13T02:37:28;5.70;;;3.67;;
79066;SDS011;68470;50.224;14.348;2023-07-13T02:39:57;4.65;;;3.38;;
79066;SDS011;68470;50.224;14.348;2023-07-13T02:42:23;4.28;;;3.13;;
79066;SDS011;68470;50.224;14.348;2023-07-13T02:44:49;7.47;;;3.10;;
79066;SDS011;68470;50.224;14.348;2023-07-13T02:47:16;4.43;;;3.05;;
79066;SDS011;68470;50.224;14.348;2023-07-13T02:49:42;4.13;;;2.85;;
79066;SDS011;68470;50.224;14.348;2023-07-13T02:52:07;4.82;;;2.30;;
79066;SDS011;68470;50.224;14.348;2023-07-13T02:54:33;3.28;;;2.25;;
79066;SDS011;68470;50.224;14.348;2023-07-13T02:56:59;4.10;;;2.60;;
79066;SDS011;68470;50.224;14.348;2023-07-13T02:59:25;3.50;;;2.40;;
79066;SDS011;68470;50.224;14.348;2023-07-13T03:01:51;3.78;;;2.50;;
79066;SDS011;68470;50.224;14.348;2023-07-13T03:04:17;4.28;;;2.30;;
79066;SDS011;68470;50.224;14.348;2023-07-13T03:06:44;3.55;;;2.20;;
79066;SDS011;68470;50.224;14.348;2023-07-13T03:09:10;5.38;;;2.25;;
79066;SDS011;68470;50.224;14.348;2023-07-13T03:11:37;5.18;;;2.05;;
79066;SDS011;68470;50.224;14.348;2023-07-13T03:14:04;3.90;;;2.15;;
79066;SDS011;68470;50.224;14.348;2023-07-13T03:16:29;5.00;;;2.40;;
79066;SDS011;68470;50.224;14.348;2023-07-13T03:18:55;3.47;;;1.88;;
79066;SDS011;68470;50.224;14.348;2023-07-13T03:21:21;4.47;;;2.53;;
79066;SDS011;68470;50.224;14.348;2023-07-13T03:23:47;3.53;;;2.10;;
79066;SDS011;68470;50.224;14.348;2023-07-13T03:26:14;3.85;;;2.75;;
79066;SDS011;68470;50.224;14.348;2023-07-13T03:28:42;4.45;;;2.65;;
79066;SDS011;68470;50.224;14.348;2023-07-13T03:31:12;4.65;;;2.40;;
79066;SDS011;68470;50.224;14.348;2023-07-13T03:33:43;3.53;;;2.15;;
79066;SDS011;68470;50.224;14.348;2023-07-13T03:36:12;6.90;;;2.85;;
79066;SDS011;68470;50.224;14.348;2023-07-13T03:38:41;3.50;;;2.30;;
79066;SDS011;68470;50.224;14.348;2023-07-13T03:41:07;4.43;;;2.40;;
79066;SDS011;68470;50.224;14.348;2023-07-13T03:43:34;6.30;;;2.15;;
79066;SDS011;68470;50.224;14.348;2023-07-13T03:45:59;6.32;;;2.70;;
79066;SDS011;68470;50.224;14.348;2023-07-13T03:48:25;3.53;;;2.22;;
79066;SDS011;68470;50.224;14.348;2023-07-13T03:50:51;6.50;;;2.72;;
79066;SDS011;68470;50.224;14.348;2023-07-13T03:53:17;3.58;;;2.50;;
79066;SDS011;68470;50.224;14.348;2023-07-13T03:55:44;3.45;;;2.40;;
79066;SDS011;68470;50.224;14.348;2023-07-13T03:58:26;2.75;;;1.92;;
79066;SDS011;68470;50.224;14.348;2023-07-13T04:00:55;6.82;;;2.70;;
79066;SDS011;68470;50.224;14.348;2023-07-13T04:03:21;5.00;;;2.63;;
79066;SDS011;68470;50.224;14.348;2023-07-13T04:05:47;7.28;;;2.40;;
79066;SDS011;68470;50.224;14.348;2023-07-13T04:08:13;4.22;;;2.38;;
79066;SDS011;68470;50.224;14.348;2023-07-13T04:10:38;4.85;;;2.50;;
79066;SDS011;68470;50.224;14.348;2023-07-13T04:13:05;4.57;;;2.60;;
79066;SDS011;68470;50.224;14.348;2023-07-13T04:15:31;4.03;;;2.63;;
79066;SDS011;68470;50.224;14.348;2023-07-13T04:17:57;4.03;;;2.80;;
79066;SDS011;68470;50.224;14.348;2023-07-13T04:20:24;5.18;;;3.10;;
79066;SDS011;68470;50.224;14.348;2023-07-13T04:22:51;5.28;;;3.30;;
79066;SDS011;68470;50.224;14.348;2023-07-13T04:25:18;5.13;;;2.90;;
79066;SDS011;68470;50.224;14.348;2023-07-13T04:27:46;3.88;;;2.50;;
79066;SDS011;68470;50.224;14.348;2023-07-13T04:30:11;6.63;;;2.90;;
79066;SDS011;68470;50.224;14.348;2023-07-13T04:32:37;3.95;;;2.40;;
79066;SDS011;68470;50.224;14.348;2023-07-13T04:35:03;4.95;;;3.70;;
79066;SDS011;68470;50.224;14.348;2023-07-13T04:37:29;5.57;;;2.75;;
79066;SDS011;68470;50.224;14.348;2023-07-13T04:39:55;4.63;;;3.00;;
79066;SDS011;68470;50.224;14.348;2023-07-13T04:42:21;3.70;;;2.55;;
79066;SDS011;68470;50.224;14.348;2023-07-13T04:44:50;5.82;;;2.92;;
79066;SDS011;68470;50.224;14.348;2023-07-13T04:47:20;3.88;;;1.83;;
79066;SDS011;68470;50.224;14.348;2023-07-13T04:52:11;4.20;;;2.60;;
79066;SDS011;68470;50.224;14.348;2023-07-13T04:54:37;4.10;;;2.72;;
79066;SDS011;68470;50.224;14.348;2023-07-13T04:57:03;4.32;;;2.55;;
79066;SDS011;68470;50.224;14.348;2023-07-13T04:59:31;4.88;;;2.88;;
79066;SDS011;68470;50.224;14.348;2023-07-13T05:02:00;3.60;;;2.42;;
79066;SDS011;68470;50.224;14.348;2023-07-13T05:04:26;6.13;;;2.92;;
79066;SDS011;68470;50.224;14.348;2023-07-13T05:06:53;5.60;;;2.70;;
79066;SDS011;68470;50.224;14.348;2023-07-13T05:09:18;3.78;;;2.55;;
79066;SDS011;68470;50.224;14.348;2023-07-13T05:11:44;5.72;;;2.83;;
79066;SDS011;68470;50.224;14.348;2023-07-13T05:14:10;5.28;;;2.90;;
79066;SDS011;68470;50.224;14.348;2023-07-13T05:16:36;6.22;;;2.88;;
79066;SDS011;68470;50.224;14.348;2023-07-13T05:19:01;7.70;;;3.17;;
79066;SDS011;68470;50.224;14.348;2023-07-13T05:21:28;3.55;;;2.45;;
79066;SDS011;68470;50.224;14.348;2023-07-13T05:23:54;4.05;;;2.72;;
79066;SDS011;68470;50.224;14.348;2023-07-13T05:26:20;5.78;;;2.60;;
79066;SDS011;68470;50.224;14.348;2023-07-13T05:28:46;4.50;;;2.88;;
79066;SDS011;68470;50.224;14.348;2023-07-13T05:31:13;3.85;;;2.78;;
79066;SDS011;68470;50.224;14.348;2023-07-13T05:33:39;4.07;;;2.70;;
79066;SDS011;68470;50.224;14.348;2023-07-13T05:36:05;5.32;;;2.95;;
79066;SDS011;68470;50.224;14.348;2023-07-13T05:38:32;5.07;;;2.75;;
79066;SDS011;68470;50.224;14.348;2023-07-13T05:40:58;4.20;;;2.45;;
79066;SDS011;68470;50.224;14.348;2023-07-13T05:43:24;4.03;;;2.67;;
79066;SDS011;68470;50.224;14.348;2023-07-13T05:45:54;4.97;;;2.58;;
79066;SDS011;68470;50.224;14.348;2023-07-13T05:48:21;4.65;;;2.85;;
79066;SDS011;68470;50.224;14.348;2023-07-13T05:50:47;4.88;;;2.80;;
79066;SDS011;68470;50.224;14.348;2023-07-13T05:53:13;5.00;;;2.88;;
79066;SDS011;68470;50.224;14.348;2023-07-13T05:55:42;4.05;;;2.92;;
79066;SDS011;68470;50.224;14.348;2023-07-13T05:58:11;4.03;;;2.83;;
79066;SDS011;68470;50.224;14.348;2023-07-13T06:00:37;4.85;;;2.60;;
79066;SDS011;68470;50.224;14.348;2023-07-13T06:03:03;4.03;;;2.80;;
79066;SDS011;68470;50.224;14.348;2023-07-13T06:05:29;4.25;;;2.70;;
79066;SDS011;68470;50.224;14.348;2023-07-13T06:07:55;3.80;;;2.53;;
79066;SDS011;68470;50.224;14.348;2023-07-13T06:10:22;5.00;;;2.63;;
79066;SDS011;68470;50.224;14.348;2023-07-13T06:12:48;4.53;;;2.80;;
79066;SDS011;68470;50.224;14.348;2023-07-13T06:15:14;4.82;;;2.83;;
79066;SDS011;68470;50.224;14.348;2023-07-13T06:17:39;3.92;;;2.90;;
79066;SDS011;68470;50.224;14.348;2023-07-13T06:20:05;3.90;;;2.80;;
79066;SDS011;68470;50.224;14.348;2023-07-13T06:22:31;5.35;;;3.13;;
79066;SDS011;68470;50.224;14.348;2023-07-13T06:24:58;3.42;;;2.40;;
79066;SDS011;68470;50.224;14.348;2023-07-13T06:27:24;4.00;;;2.80;;
79066;SDS011;68470;50.224;14.348;2023-07-13T06:29:50;4.78;;;2.78;;
79066;SDS011;68470;50.224;14.348;2023-07-13T06:32:15;3.25;;;2.53;;
79066;SDS011;68470;50.224;14.348;2023-07-13T06:34:42;5.70;;;2.65;;
79066;SDS011;68470;50.224;14.348;2023-07-13T06:37:08;5.40;;;3.05;;
79066;SDS011;68470;50.224;14.348;2023-07-13T06:39:35;5.35;;;3.45;;
79066;SDS011;68470;50.224;14.348;2023-07-13T06:42:01;5.93;;;2.60;;
79066;SDS011;68470;50.224;14.348;2023-07-13T06:44:27;4.15;;;2.60;;
79066;SDS011;68470;50.224;14.348;2023-07-13T06:46:57;3.55;;;2.42;;
79066;SDS011;68470;50.224;14.348;2023-07-13T06:49:23;3.38;;;2.50;;
79066;SDS011;68470;50.224;14.348;2023-07-13T06:51:49;4.07;;;2.85;;
79066;SDS011;68470;50.224;14.348;2023-07-13T06:54:15;4.10;;;2.80;;
79066;SDS011;68470;50.224;14.348;2023-07-13T06:56:41;4.20;;;3.13;;
79066;SDS011;68470;50.224;14.348;2023-07-13T06:59:06;8.30;;;3.10;;
79066;SDS011;68470;50.224;14.348;2023-07-13T07:01:33;4.63;;;3.03;;
79066;SDS011;68470;50.224;14.348;2023-07-13T07:04:00;3.88;;;2.65;;
79066;SDS011;68470;50.224;14.348;2023-07-13T07:06:25;4.22;;;3.05;;
79066;SDS011;68470;50.224;14.348;2023-07-13T07:08:52;4.97;;;2.80;;
79066;SDS011;68470;50.224;14.348;2023-07-13T07:11:18;8.70;;;3.13;;
79066;SDS011;68470;50.224;14.348;2023-07-13T07:13:47;3.88;;;2.47;;
79066;SDS011;68470;50.224;14.348;2023-07-13T07:16:13;5.43;;;3.13;;
79066;SDS011;68470;50.224;14.348;2023-07-13T07:18:39;4.07;;;3.22;;
79066;SDS011;68470;50.224;14.348;2023-07-13T07:21:05;4.47;;;3.08;;
79066;SDS011;68470;50.224;14.348;2023-07-13T07:23:31;4.18;;;2.45;;
79066;SDS011;68470;50.224;14.348;2023-07-13T07:25:57;3.95;;;2.85;;
79066;SDS011;68470;50.224;14.348;2023-07-13T07:28:23;3.97;;;2.40;;
79066;SDS011;68470;50.224;14.348;2023-07-13T07:30:49;6.38;;;3.50;;
79066;SDS011;68470;50.224;14.348;2023-07-13T07:33:18;4.05;;;2.85;;
79066;SDS011;68470;50.224;14.348;2023-07-13T07:35:44;4.10;;;3.10;;
79066;SDS011;68470;50.224;14.348;2023-07-13T07:38:10;4.32;;;2.70;;
79066;SDS011;68470;50.224;14.348;2023-07-13T07:40:39;6.55;;;2.50;;
79066;SDS011;68470;50.224;14.348;2023-07-13T07:43:06;4.50;;;3.00;;
79066;SDS011;68470;50.224;14.348;2023-07-13T07:45:34;2.83;;;2.25;;
79066;SDS011;68470;50.224;14.348;2023-07-13T07:48:00;4.60;;;3.08;;
79066;SDS011;68470;50.224;14.348;2023-07-13T07:50:26;3.67;;;2.75;;
79066;SDS011;68470;50.224;14.348;2023-07-13T07:52:53;5.97;;;2.70;;
79066;SDS011;68470;50.224;14.348;2023-07-13T07:55:21;4.15;;;3.10;;
79066;SDS011;68470;50.224;14.348;2023-07-13T07:57:47;4.82;;;2.70;;
79066;SDS011;68470;50.224;14.348;2023-07-13T08:00:13;3.97;;;2.83;;
79066;SDS011;68470;50.224;14.348;2023-07-13T08:02:40;3.85;;;2.75;;
79066;SDS011;68470;50.224;14.348;2023-07-13T08:05:07;4.57;;;2.65;;
79066;SDS011;68470;50.224;14.348;2023-07-13T08:07:34;3.05;;;2.42;;
79066;SDS011;68470;50.224;14.348;2023-07-13T08:10:00;4.10;;;2.63;;
79066;SDS011;68470;50.224;14.348;2023-07-13T08:12:27;2.80;;;2.03;;
79066;SDS011;68470;50.224;14.348;2023-07-13T08:14:53;3.70;;;2.60;;
79066;SDS011;68470;50.224;14.348;2023-07-13T08:17:26;2.67;;;2.30;;
79066;SDS011;68470;50.224;14.348;2023-07-13T08:19:52;3.80;;;2.45;;
79066;SDS011;68470;50.224;14.348;2023-07-13T08:22:18;2.60;;;2.22;;
79066;SDS011;68470;50.224;14.348;2023-07-13T08:24:43;4.70;;;2.90;;
79066;SDS011;68470;50.224;14.348;2023-07-13T08:27:12;5.03;;;2.72;;
79066;SDS011;68470;50.224;14.348;2023-07-13T08:29:39;3.70;;;2.78;;
79066;SDS011;68470;50.224;14.348;2023-07-13T08:32:06;3.60;;;2.65;;
79066;SDS011;68470;50.224;14.348;2023-07-13T08:37:01;3.03;;;2.22;;
79066;SDS011;68470;50.224;14.348;2023-07-13T08:39:29;3.40;;;2.45;;
79066;SDS011;68470;50.224;14.348;2023-07-13T08:41:57;3.08;;;2.75;;
79066;SDS011;68470;50.224;14.348;2023-07-13T08:44:30;2.78;;;1.85;;
79066;SDS011;68470;50.224;14.348;2023-07-13T08:47:07;4.05;;;2.53;;
79066;SDS011;68470;50.224;14.348;2023-07-13T08:49:35;4.18;;;2.42;;
79066;SDS011;68470;50.224;14.348;2023-07-13T08:52:04;4.55;;;2.40;;
79066;SDS011;68470;50.224;14.348;2023-07-13T08:54:38;4.72;;;2.65;;
79066;SDS011;68470;50.224;14.348;2023-07-13T08:57:15;4.63;;;2.63;;
79066;SDS011;68470;50.224;14.348;2023-07-13T08:59:44;3.40;;;2.78;;
79066;SDS011;68470;50.224;14.348;2023-07-13T09:02:28;4.50;;;2.53;;
79066;SDS011;68470;50.224;14.348;2023-07-13T09:05:22;3.92;;;2.03;;
79066;SDS011;68470;50.224;14.348;2023-07-13T09:11:06;2.80;;;2.13;;
79066;SDS011;68470;50.224;14.348;2023-07-13T09:16:38;3.35;;;2.38;;
79066;SDS011;68470;50.224;14.348;2023-07-13T09:19:06;4.07;;;2.03;;
79066;SDS011;68470;50.224;14.348;2023-07-13T09:21:37;4.07;;;2.33;;
79066;SDS011;68470;50.224;14.348;2023-07-13T09:26:57;3.25;;;2.33;;
79066;SDS011;68470;50.224;14.348;2023-07-13T09:29:28;2.90;;;2.10;;
79066;SDS011;68470;50.224;14.348;2023-07-13T09:32:00;3.15;;;1.92;;
79066;SDS011;68470;50.224;14.348;2023-07-13T09:34:29;2.92;;;2.30;;
79066;SDS011;68470;50.224;14.348;2023-07-13T09:36:56;4.53;;;2.30;;
79066;SDS011;68470;50.224;14.348;2023-07-13T09:39:26;3.40;;;2.40;;
79066;SDS011;68470;50.224;14.348;2023-07-13T09:44:37;3.35;;;2.10;;
79066;SDS011;68470;50.224;14.348;2023-07-13T09:47:26;3.90;;;2.03;;
79066;SDS011;68470;50.224;14.348;2023-07-13T09:50:02;3.15;;;2.08;;
79066;SDS011;68470;50.224;14.348;2023-07-13T09:52:46;3.80;;;2.05;;
79066;SDS011;68470;50.224;14.348;2023-07-13T09:58:04;2.58;;;1.80;;
79066;SDS011;68470;50.224;14.348;2023-07-13T10:00:36;4.57;;;1.85;;
79066;SDS011;68470;50.224;14.348;2023-07-13T10:03:03;5.78;;;2.03;;
79066;SDS011;68470;50.224;14.348;2023-07-13T10:05:46;2.60;;;1.73;;
79066;SDS011;68470;50.224;14.348;2023-07-13T10:08:18;5.85;;;2.10;;
79066;SDS011;68470;50.224;14.348;2023-07-13T10:10:46;3.58;;;2.00;;
79066;SDS011;68470;50.224;14.348;2023-07-13T10:13:32;3.92;;;2.38;;
79066;SDS011;68470;50.224;14.348;2023-07-13T10:16:06;3.90;;;1.63;;
79066;SDS011;68470;50.224;14.348;2023-07-13T10:18:43;3.10;;;1.63;;
79066;SDS011;68470;50.224;14.348;2023-07-13T10:21:22;3.20;;;1.88;;
79066;SDS011;68470;50.224;14.348;2023-07-13T10:23:59;2.63;;;1.73;;
79066;SDS011;68470;50.224;14.348;2023-07-13T10:26:32;3.30;;;2.08;;
79066;SDS011;68470;50.224;14.348;2023-07-13T10:29:02;2.88;;;2.00;;
79066;SDS011;68470;50.224;14.348;2023-07-13T10:31:36;2.33;;;2.00;;
79066;SDS011;68470;50.224;14.348;2023-07-13T10:34:04;4.18;;;2.47;;
79066;SDS011;68470;50.224;14.348;2023-07-13T10:36:35;3.80;;;2.42;;
79066;SDS011;68470;50.224;14.348;2023-07-13T10:39:09;4.00;;;2.42;;
79066;SDS011;68470;50.224;14.348;2023-07-13T10:41:44;3.95;;;1.92;;
79066;SDS011;68470;50.224;14.348;2023-07-13T10:44:18;3.55;;;2.25;;
79066;SDS011;68470;50.224;14.348;2023-07-13T10:46:51;3.42;;;1.80;;
79066;SDS011;68470;50.224;14.348;2023-07-13T10:51:46;3.45;;;2.10;;
79066;SDS011;68470;50.224;14.348;2023-07-13T10:56:53;4.35;;;2.33;;
79066;SDS011;68470;50.224;14.348;2023-07-13T10:59:32;2.45;;;2.17;;
79066;SDS011;68470;50.224;14.348;2023-07-13T11:02:00;3.53;;;2.22;;
79066;SDS011;68470;50.224;14.348;2023-07-13T11:04:40;4.18;;;2.15;;
79066;SDS011;68470;50.224;14.348;2023-07-13T11:10:00;3.08;;;2.20;;
79066;SDS011;68470;50.224;14.348;2023-07-13T11:12:50;4.07;;;2.40;;
79066;SDS011;68470;50.224;14.348;2023-07-13T11:15:30;4.07;;;1.83;;
79066;SDS011;68470;50.224;14.348;2023-07-13T11:20:48;3.75;;;1.83;;
79066;SDS011;68470;50.224;14.348;2023-07-13T11:25:43;3.55;;;1.92;;
79066;SDS011;68470;50.224;14.348;2023-07-13T11:38:14;3.20;;;2.03;;
79066;SDS011;68470;50.224;14.348;2023-07-13T11:40:43;3.13;;;2.38;;
79066;SDS011;68470;50.224;14.348;2023-07-13T11:43:12;3.92;;;2.47;;
79066;SDS011;68470;50.224;14.348;2023-07-13T11:45:40;3.42;;;1.83;;
79066;SDS011;68470;50.224;14.348;2023-07-13T11:48:18;4.97;;;2.20;;
79066;SDS011;68470;50.224;14.348;2023-07-13T11:50:50;3.17;;;1.83;;
79066;SDS011;68470;50.224;14.348;2023-07-13T11:53:19;3.60;;;2.10;;
79066;SDS011;68470;50.224;14.348;2023-07-13T11:55:45;3.85;;;2.30;;
79066;SDS011;68470;50.224;14.348;2023-07-13T11:58:14;4.18;;;2.25;;
79066;SDS011;68470;50.224;14.348;2023-07-13T12:00:45;3.42;;;1.85;;
79066;SDS011;68470;50.224;14.348;2023-07-13T12:03:13;3.70;;;2.38;;
79066;SDS011;68470;50.224;14.348;2023-07-13T12:06:06;3.05;;;2.30;;
79066;SDS011;68470;50.224;14.348;2023-07-13T12:08:50;3.13;;;1.88;;
79066;SDS011;68470;50.224;14.348;2023-07-13T12:11:16;3.15;;;2.03;;
79066;SDS011;68470;50.224;14.348;2023-07-13T12:13:44;3.40;;;2.30;;
79066;SDS011;68470;50.224;14.348;2023-07-13T12:16:12;4.00;;;2.35;;
79066;SDS011;68470;50.224;14.348;2023-07-13T12:18:42;2.85;;;2.53;;
79066;SDS011;68470;50.224;14.348;2023-07-13T12:21:12;5.57;;;2.45;;
79066;SDS011;68470;50.224;14.348;2023-07-13T12:23:42;2.30;;;1.75;;
79066;SDS011;68470;50.224;14.348;2023-07-13T12:26:09;4.10;;;2.28;;
79066;SDS011;68470;50.224;14.348;2023-07-13T12:28:37;2.40;;;1.83;;
79066;SDS011;68470;50.224;14.348;2023-07-13T12:34:07;4.45;;;1.95;;
79066;SDS011;68470;50.224;14.348;2023-07-13T12:36:37;3.15;;;2.03;;
79066;SDS011;68470;50.224;14.348;2023-07-13T12:39:13;3.42;;;2.00;;
79066;SDS011;68470;50.224;14.348;2023-07-13T12:42:13;2.53;;;1.95;;
79066;SDS011;68470;50.224;14.348;2023-07-13T12:45:16;3.17;;;2.10;;
79066;SDS011;68470;50.224;14.348;2023-07-13T12:47:43;4.07;;;2.15;;
79066;SDS011;68470;50.224;14.348;2023-07-13T12:50:17;4.10;;;2.15;;
79066;SDS011;68470;50.224;14.348;2023-07-13T12:52:49;4.40;;;2.00;;
79066;SDS011;68470;50.224;14.348;2023-07-13T12:55:18;3.67;;;1.95;;
79066;SDS011;68470;50.224;14.348;2023-07-13T12:57:53;3.38;;;1.75;;
79066;SDS011;68470;50.224;14.348;2023-07-13T13:00:26;3.80;;;1.73;;
79066;SDS011;68470;50.224;14.348;2023-07-13T13:03:04;4.13;;;2.20;;
79066;SDS011;68470;50.224;14.348;2023-07-13T13:05:44;4.13;;;2.10;;
79066;SDS011;68470;50.224;14.348;2023-07-13T13:08:13;4.85;;;1.70;;
79066;SDS011;68470;50.224;14.348;2023-07-13T13:10:40;3.92;;;2.25;;
79066;SDS011;68470;50.224;14.348;2023-07-13T13:13:06;2.72;;;2.00;;
79066;SDS011;68470;50.224;14.348;2023-07-13T13:15:32;4.22;;;1.92;;
79066;SDS011;68470;50.224;14.348;2023-07-13T13:17:58;4.18;;;2.22;;
79066;SDS011;68470;50.224;14.348;2023-07-13T13:20:24;2.95;;;2.30;;
79066;SDS011;68470;50.224;14.348;2023-07-13T13:22:51;2.65;;;2.00;;
79066;SDS011;68470;50.224;14.348;2023-07-13T13:25:17;10.15;;;2.40;;
79066;SDS011;68470;50.224;14.348;2023-07-13T13:27:44;3.00;;;2.10;;
79066;SDS011;68470;50.224;14.348;2023-07-13T13:30:11;3.97;;;2.90;;
79066;SDS011;68470;50.224;14.348;2023-07-13T13:32:39;4.20;;;2.13;;
79066;SDS011;68470;50.224;14.348;2023-07-13T13:35:16;3.00;;;2.20;;
79066;SDS011;68470;50.224;14.348;2023-07-13T13:37:43;3.97;;;2.67;;
79066;SDS011;68470;50.224;14.348;2023-07-13T13:40:21;4.55;;;2.63;;
79066;SDS011;68470;50.224;14.348;2023-07-13T13:42:48;3.45;;;2.30;;
79066;SDS011;68470;50.224;14.348;2023-07-13T13:45:14;3.33;;;1.90;;
79066;SDS011;68470;50.224;14.348;2023-07-13T13:50:13;4.60;;;2.00;;
79066;SDS011;68470;50.224;14.348;2023-07-13T13:52:45;2.80;;;1.95;;
79066;SDS011;68470;50.224;14.348;2023-07-13T13:55:11;3.05;;;1.95;;
79066;SDS011;68470;50.224;14.348;2023-07-13T13:57:41;4.75;;;2.35;;
79066;SDS011;68470;50.224;14.348;2023-07-13T14:00:11;2.72;;;2.03;;
79066;SDS011;68470;50.224;14.348;2023-07-13T14:02:40;4.22;;;2.22;;
79066;SDS011;68470;50.224;14.348;2023-07-13T14:05:12;3.72;;;2.20;;
79066;SDS011;68470;50.224;14.348;2023-07-13T14:07:38;4.70;;;2.03;;
79066;SDS011;68470;50.224;14.348;2023-07-13T14:10:10;5.03;;;2.50;;
79066;SDS011;68470;50.224;14.348;2023-07-13T14:12:38;3.22;;;2.20;;
79066;SDS011;68470;50.224;14.348;2023-07-13T14:15:12;2.60;;;2.03;;
79066;SDS011;68470;50.224;14.348;2023-07-13T14:17:43;6.00;;;2.38;;
79066;SDS011;68470;50.224;14.348;2023-07-13T14:20:10;3.38;;;1.85;;
79066;SDS011;68470;50.224;14.348;2023-07-13T14:22:37;4.15;;;2.13;;
79066;SDS011;68470;50.224;14.348;2023-07-13T14:25:03;4.13;;;2.00;;
79066;SDS011;68470;50.224;14.348;2023-07-13T14:27:29;3.00;;;2.05;;
79066;SDS011;68470;50.224;14.348;2023-07-13T14:29:55;6.45;;;2.42;;
79066;SDS011;68470;50.224;14.348;2023-07-13T14:32:21;2.90;;;2.15;;
79066;SDS011;68470;50.224;14.348;2023-07-13T14:34:47;3.40;;;2.45;;
79066;SDS011;68470;50.224;14.348;2023-07-13T14:37:13;4.50;;;2.33;;
79066;SDS011;68470;50.224;14.348;2023-07-13T14:39:44;3.70;;;2.40;;
79066;SDS011;68470;50.224;14.348;2023-07-13T14:42:16;3.22;;;2.20;;
79066;SDS011;68470;50.224;14.348;2023-07-13T14:44:43;3.78;;;2.65;;
79066;SDS011;68470;50.224;14.348;2023-07-13T14:47:08;3.38;;;2.17;;
79066;SDS011;68470;50.224;14.348;2023-07-13T14:49:36;5.30;;;2.30;;
79066;SDS011;68470;50.224;14.348;2023-07-13T14:52:12;3.15;;;2.05;;
79066;SDS011;68470;50.224;14.348;2023-07-13T14:54:43;5.53;;;2.15;;
79066;SDS011;68470;50.224;14.348;2023-07-13T14:57:10;4.93;;;2.15;;
79066;SDS011;68470;50.224;14.348;2023-07-13T14:59:37;3.25;;;2.10;;
79066;SDS011;68470;50.224;14.348;2023-07-13T15:02:08;6.97;;;2.33;;
79066;SDS011;68470;50.224;14.348;2023-07-13T15:04:57;3.22;;;2.00;;
79066;SDS011;68470;50.224;14.348;2023-07-13T15:07:23;4.57;;;2.10;;
79066;SDS011;68470;50.224;14.348;2023-07-13T15:09:49;4.22;;;2.20;;
79066;SDS011;68470;50.224;14.348;2023-07-13T15:12:18;3.00;;;2.13;;
79066;SDS011;68470;50.224;14.348;2023-07-13T15:14:45;5.15;;;2.28;;
79066;SDS011;68470;50.224;14.348;2023-07-13T15:17:19;4.45;;;2.22;;
79066;SDS011;68470;50.224;14.348;2023-07-13T15:19:53;4.40;;;2.63;;
79066;SDS011;68470;50.224;14.348;2023-07-13T15:22:18;2.65;;;2.15;;
79066;SDS011;68470;50.224;14.348;2023-07-13T15:24:45;3.75;;;2.20;;
79066;SDS011;68470;50.224;14.348;2023-07-13T15:27:12;2.65;;;2.08;;
79066;SDS011;68470;50.224;14.348;2023-07-13T15:29:38;3.80;;;2.28;;
79066;SDS011;68470;50.224;14.348;2023-07-13T15:32:12;3.92;;;2.10;;
79066;SDS011;68470;50.224;14.348;2023-07-13T15:34:39;4.35;;;2.13;;
79066;SDS011;68470;50.224;14.348;2023-07-13T15:37:11;3.65;;;2.83;;